METAR Reports From Nearby Airports

 

KLUD - Decatur, Texas, USA
Distance from Wildwood: ESE 5mi, 8km
Updated: Dec 13, 2017 10:15pm
Clear
Clear
 Wind from N
Wind: N 6 mph , 9 km/h
Temperature: 55°F , 13°C
Dew Point: 18°F , -8°C
Humidity: 23%
Barometer: 29.90 inHg , 1012.5 hPa
Clouds: Clear
Visibility: 10 miles , 16 km
2017/12/14 04:15 KLUD 140415Z AUTO 35005KT 10SM CLR 13/M08 A2990 RMK AO2 T01251078
KXBP - Bridgeport, Texas, USA
Distance from Wildwood: WSW 11mi, 18km
Updated: Dec 13, 2017 10:15pm
Clear
Clear
 Wind from SW
Wind: SW 3 mph , 6 km/h
Temperature: 37°F , 3°C
Dew Point: 25°F , -4°C
Humidity: 60%
Barometer: 29.93 inHg , 1013.5 hPa
Clouds: Clear
Visibility: 10 miles , 16 km
2017/12/14 04:15 KXBP 140415Z AUTO 23003KT 10SM CLR 03/M04 A2993 RMK AO2 T00281039
 
K0F2 - Bowie, Texas, USA
Distance from Wildwood: NNW 24mi, 39km
Updated: Dec 13, 2017 10:15pm
Clear
Clear
 Wind from N
Wind: N 7 mph , 11 km/h
Temperature: 46°F , 8°C
Wind Chill: 42°F , 6°C
Dew Point: 21°F , -6°C
Humidity: 37%
Barometer: 29.92 inHg , 1013.2 hPa
Clouds: Clear
Visibility: 10 miles , 16 km
2017/12/14 04:15 K0F2 140415Z AUTO 35006KT 10SM CLR 08/M06 A2992 RMK AO2 T00811063
KDTO - Denton, Texas, USA
Distance from Wildwood: E 27mi, 44km
Updated: Dec 13, 2017 9:53pm
Clear
Clear
 Wind from calm
Wind: Calm
Temperature: 45°F , 7°C
Dew Point: 21°F , -6°C
Humidity: 39%
Barometer: 29.90 inHg , 1012.5 hPa
Clouds: Clear
Visibility: 10 miles , 16 km
2017/12/14 03:53 KDTO 140353Z 00000KT 10SM CLR 07/M06 A2990 RMK AO2 SLP123 T00721056
 
KAFW - Ft Worth/Allianc, Texas, USA
Distance from Wildwood: SE 29mi, 46km
Updated: Dec 13, 2017 9:53pm
Few Clouds
Few Clouds
 Wind from calm
Wind: Calm
Temperature: 43°F , 6°C
Dew Point: 23°F , -5°C
Humidity: 46%
Barometer: 29.90 inHg , 1012.5 hPa
Clouds: Few Clouds
Visibility: 10 miles , 16 km
Cloud details: Few Clouds 30000 ft
2017/12/14 03:53 KAFW 140353Z 00000KT 10SM FEW300 06/M05 A2990 RMK AO2 SLP125 T00611050
KFTW - Fort Worth, Texas, USA
Distance from Wildwood: SSE 34mi, 55km
Updated: Dec 13, 2017 9:53pm
Clear
Clear
 Wind from calm
Wind: Calm
Temperature: 54°F , 12°C
Dew Point: 27°F , -3°C
Humidity: 35%
Barometer: 29.89 inHg , 1012.2 hPa
Clouds: Clear
Visibility: 10 miles , 16 km
2017/12/14 03:53 KFTW 140353Z 00000KT 10SM CLR 12/M03 A2989 RMK AO2 SLP120 T01221028
 
KNFW - Fort Worth Nas, Texas, USA
Distance from Wildwood: SSE 36mi, 58km
Updated: Dec 13, 2017 9:52pm
Clear
Clear
 Wind from NNW
Wind: NNW 5 mph , 7 km/h
Temperature: 48°F , 9°C
Wind Chill: 46°F , 8°C
Dew Point: 32°F , 0°C
Humidity: 54%
Barometer: 29.90 inHg , 1012.5 hPa
Clouds: Clear
Visibility: 10 miles , 16 km
2017/12/14 03:52 KNFW 140352Z 33004KT 10SM CLR 09/00 A2990 RMK AO2 SLP109 T00890000 $
KGLE - Gainesville, Texas, USA
Distance from Wildwood: NE 38mi, 61km
Updated: Dec 13, 2017 10:15pm
Clear
Clear
 Wind from N
Wind: N 10 mph , 17 km/h
Temperature: 48°F , 9°C
Wind Chill: 44°F , 7°C
Dew Point: 19°F , -7°C
Humidity: 32%
Barometer: 29.92 inHg , 1013.2 hPa
Clouds: Clear
Visibility: 10 miles , 16 km
2017/12/14 04:15 KGLE 140415Z AUTO 35009KT 10SM CLR 09/M07 A2992 RMK AO2 T00911066
 
KMWL - Mineral Wells, Texas, USA
Distance from Wildwood: SW 41mi, 65km
Updated: Dec 13, 2017 9:53pm
Clear
Clear
 Wind from calm
Wind: Calm
Temperature: 46°F , 8°C
Dew Point: 19°F , -7°C
Humidity: 34%
Barometer: 29.89 inHg , 1012.2 hPa
Clouds: Clear
Visibility: 10 miles , 16 km
2017/12/14 03:53 KMWL 140353Z AUTO 00000KT 10SM CLR 08/M07 A2989 RMK AO2 SLP118 T00781072
KDFW - Dallas/Ft Worth, Texas, USA
Distance from Wildwood: ESE 45mi, 73km
Updated: Dec 13, 2017 9:53pm
Clear
Clear
 Wind from SW
Wind: SW 7 mph , 11 km/h
Temperature: 54°F , 12°C
Dew Point: 28°F , -2°C
Humidity: 38%
Barometer: 29.88 inHg , 1011.9 hPa
Clouds: Clear
Visibility: 10 miles , 16 km
2017/12/14 03:53 KDFW 140353Z 22006KT 10SM CLR 12/M02 A2988 RMK AO2 SLP117 T01171022